sensor_id;sensor_type;location;lat;lon;timestamp;pressure;altitude;pressure_sealevel;temperature;humidity
11314;BME280;5712;48.858;9.206;2023-12-14T00:02:23;97090.97;;;6.05;100.00
11314;BME280;5712;48.858;9.206;2023-12-14T00:04:50;97087.44;;;6.06;100.00
11314;BME280;5712;48.858;9.206;2023-12-14T00:07:18;97099.38;;;6.10;100.00
11314;BME280;5712;48.858;9.206;2023-12-14T00:09:44;97102.44;;;6.17;100.00
11314;BME280;5712;48.858;9.206;2023-12-14T00:12:11;97098.97;;;6.16;100.00
11314;BME280;5712;48.858;9.206;2023-12-14T00:14:37;97104.31;;;6.15;100.00
11314;BME280;5712;48.858;9.206;2023-12-14T00:17:04;97104.94;;;6.18;100.00
11314;BME280;5712;48.858;9.206;2023-12-14T00:19:30;97111.44;;;6.13;100.00
11314;BME280;5712;48.858;9.206;2023-12-14T00:21:57;97108.72;;;6.14;100.00
11314;BME280;5712;48.858;9.206;2023-12-14T00:24:24;97122.97;;;6.10;100.00
11314;BME280;5712;48.858;9.206;2023-12-14T00:26:51;97131.59;;;6.12;100.00
11314;BME280;5712;48.858;9.206;2023-12-14T00:29:17;97120.38;;;6.10;100.00
11314;BME280;5712;48.858;9.206;2023-12-14T00:31:44;97123.06;;;6.09;100.00
11314;BME280;5712;48.858;9.206;2023-12-14T00:34:10;97121.22;;;6.11;100.00
11314;BME280;5712;48.858;9.206;2023-12-14T00:36:37;97121.41;;;6.08;100.00
11314;BME280;5712;48.858;9.206;2023-12-14T00:39:04;97129.19;;;6.09;100.00
11314;BME280;5712;48.858;9.206;2023-12-14T00:41:31;97128.22;;;6.10;100.00
11314;BME280;5712;48.858;9.206;2023-12-14T00:43:58;97133.56;;;6.09;100.00
11314;BME280;5712;48.858;9.206;2023-12-14T00:46:24;97134.66;;;6.06;100.00
11314;BME280;5712;48.858;9.206;2023-12-14T00:48:51;97147.84;;;6.05;100.00
11314;BME280;5712;48.858;9.206;2023-12-14T00:51:17;97140.06;;;6.03;100.00
11314;BME280;5712;48.858;9.206;2023-12-14T00:53:44;97155.09;;;6.01;100.00
11314;BME280;5712;48.858;9.206;2023-12-14T00:56:10;97155.50;;;6.08;100.00
11314;BME280;5712;48.858;9.206;2023-12-14T00:58:38;97161.38;;;6.11;100.00
11314;BME280;5712;48.858;9.206;2023-12-14T01:01:05;97159.53;;;6.13;100.00
11314;BME280;5712;48.858;9.206;2023-12-14T01:03:31;97160.25;;;6.15;100.00
11314;BME280;5712;48.858;9.206;2023-12-14T01:05:58;97162.97;;;6.14;100.00
11314;BME280;5712;48.858;9.206;2023-12-14T01:08:24;97172.81;;;6.10;100.00
11314;BME280;5712;48.858;9.206;2023-12-14T01:10:51;97171.88;;;6.11;100.00
11314;BME280;5712;48.858;9.206;2023-12-14T01:13:17;97172.81;;;6.10;100.00
11314;BME280;5712;48.858;9.206;2023-12-14T01:15:45;97180.59;;;6.12;100.00
11314;BME280;5712;48.858;9.206;2023-12-14T01:18:11;97185.44;;;6.18;100.00
11314;BME280;5712;48.858;9.206;2023-12-14T01:20:38;97188.16;;;6.16;100.00
11314;BME280;5712;48.858;9.206;2023-12-14T01:23:05;97198.88;;;6.13;100.00
11314;BME280;5712;48.858;9.206;2023-12-14T01:25:34;97201.38;;;6.15;100.00
11314;BME280;5712;48.858;9.206;2023-12-14T01:28:01;97196.66;;;6.20;100.00
11314;BME280;5712;48.858;9.206;2023-12-14T01:30:27;97200.31;;;6.17;100.00
11314;BME280;5712;48.858;9.206;2023-12-14T01:32:55;97207.47;;;6.15;100.00
11314;BME280;5712;48.858;9.206;2023-12-14T01:35:22;97215.44;;;6.14;100.00
11314;BME280;5712;48.858;9.206;2023-12-14T01:37:49;97223.28;;;6.14;100.00
11314;BME280;5712;48.858;9.206;2023-12-14T01:40:18;97218.28;;;6.11;100.00
11314;BME280;5712;48.858;9.206;2023-12-14T01:42:46;97225.09;;;6.13;100.00
11314;BME280;5712;48.858;9.206;2023-12-14T01:45:12;97224.16;;;6.14;100.00
11314;BME280;5712;48.858;9.206;2023-12-14T01:47:41;97236.41;;;6.14;100.00
11314;BME280;5712;48.858;9.206;2023-12-14T01:50:09;97241.97;;;6.09;100.00
11314;BME280;5712;48.858;9.206;2023-12-14T01:52:35;97237.03;;;6.05;100.00
11314;BME280;5712;48.858;9.206;2023-12-14T01:55:02;97232.81;;;6.02;100.00
11314;BME280;5712;48.858;9.206;2023-12-14T01:57:29;97230.19;;;6.02;100.00
11314;BME280;5712;48.858;9.206;2023-12-14T01:59:55;97244.81;;;6.06;100.00
11314;BME280;5712;48.858;9.206;2023-12-14T02:02:22;97249.84;;;6.09;100.00
11314;BME280;5712;48.858;9.206;2023-12-14T02:04:48;97254.88;;;6.12;100.00
11314;BME280;5712;48.858;9.206;2023-12-14T02:07:16;97258.97;;;6.16;100.00
11314;BME280;5712;48.858;9.206;2023-12-14T02:09:43;97264.97;;;6.18;100.00
11314;BME280;5712;48.858;9.206;2023-12-14T02:12:09;97262.47;;;6.17;100.00
11314;BME280;5712;48.858;9.206;2023-12-14T02:14:36;97266.84;;;6.16;100.00
11314;BME280;5712;48.858;9.206;2023-12-14T02:17:02;97268.53;;;6.17;100.00
11314;BME280;5712;48.858;9.206;2023-12-14T02:19:29;97267.31;;;6.23;100.00
11314;BME280;5712;48.858;9.206;2023-12-14T02:21:56;97267.31;;;6.23;100.00
11314;BME280;5712;48.858;9.206;2023-12-14T02:24:24;97275.06;;;6.24;100.00
11314;BME280;5712;48.858;9.206;2023-12-14T02:26:50;97274.53;;;6.19;100.00
11314;BME280;5712;48.858;9.206;2023-12-14T02:29:16;97277.88;;;6.21;100.00
11314;BME280;5712;48.858;9.206;2023-12-14T02:31:43;97284.09;;;6.20;100.00
11314;BME280;5712;48.858;9.206;2023-12-14T02:34:09;97280.69;;;6.18;100.00
11314;BME280;5712;48.858;9.206;2023-12-14T02:36:36;97286.81;;;6.19;100.00
11314;BME280;5712;48.858;9.206;2023-12-14T02:39:02;97285.75;;;6.21;100.00
11314;BME280;5712;48.858;9.206;2023-12-14T02:41:30;97287.66;;;6.19;100.00
11314;BME280;5712;48.858;9.206;2023-12-14T02:43:57;97294.66;;;6.19;100.00
11314;BME280;5712;48.858;9.206;2023-12-14T02:46:23;97300.22;;;6.14;100.00
11314;BME280;5712;48.858;9.206;2023-12-14T02:48:50;97300.97;;;6.16;100.00
11314;BME280;5712;48.858;9.206;2023-12-14T02:51:16;97302.84;;;6.14;100.00
11314;BME280;5712;48.858;9.206;2023-12-14T02:53:43;97299.38;;;6.14;100.00
11314;BME280;5712;48.858;9.206;2023-12-14T02:56:09;97296.66;;;6.15;100.00
11314;BME280;5712;48.858;9.206;2023-12-14T02:58:37;97301.16;;;6.13;100.00
11314;BME280;5712;48.858;9.206;2023-12-14T03:01:04;97303.16;;;6.10;100.00
11314;BME280;5712;48.858;9.206;2023-12-14T03:03:30;97301.44;;;6.09;100.00
11314;BME280;5712;48.858;9.206;2023-12-14T03:05:57;97304.91;;;6.09;100.00
11314;BME280;5712;48.858;9.206;2023-12-14T03:08:23;97312.06;;;6.07;100.00
11314;BME280;5712;48.858;9.206;2023-12-14T03:10:50;97312.16;;;6.06;100.00
11314;BME280;5712;48.858;9.206;2023-12-14T03:13:16;97317.19;;;6.09;100.00
11314;BME280;5712;48.858;9.206;2023-12-14T03:15:45;97324.13;;;6.10;100.00
11314;BME280;5712;48.858;9.206;2023-12-14T03:18:12;97338.06;;;6.10;100.00
11314;BME280;5712;48.858;9.206;2023-12-14T03:20:38;97328.31;;;6.12;100.00
11314;BME280;5712;48.858;9.206;2023-12-14T03:23:05;97337.91;;;6.13;100.00
11314;BME280;5712;48.858;9.206;2023-12-14T03:25:31;97345.75;;;6.13;100.00
11314;BME280;5712;48.858;9.206;2023-12-14T03:27:58;97347.44;;;6.14;100.00
11314;BME280;5712;48.858;9.206;2023-12-14T03:30:24;97354.16;;;6.18;100.00
11314;BME280;5712;48.858;9.206;2023-12-14T03:32:53;97358.66;;;6.16;100.00
11314;BME280;5712;48.858;9.206;2023-12-14T03:35:19;97358.97;;;6.12;100.00
11314;BME280;5712;48.858;9.206;2023-12-14T03:37:46;97364.13;;;6.13;100.00
11314;BME280;5712;48.858;9.206;2023-12-14T03:40:12;97361.69;;;6.10;100.00
11314;BME280;5712;48.858;9.206;2023-12-14T03:42:39;97374.88;;;6.09;100.00
11314;BME280;5712;48.858;9.206;2023-12-14T03:45:06;97377.41;;;6.10;100.00
11314;BME280;5712;48.858;9.206;2023-12-14T03:47:33;97376.47;;;6.11;100.00
11314;BME280;5712;48.858;9.206;2023-12-14T03:50:01;97381.47;;;6.16;100.00
11314;BME280;5712;48.858;9.206;2023-12-14T03:52:27;97385.19;;;6.12;100.00
11314;BME280;5712;48.858;9.206;2023-12-14T03:54:56;97394.00;;;6.11;100.00
11314;BME280;5712;48.858;9.206;2023-12-14T03:57:22;97395.69;;;6.12;100.00
11314;BME280;5712;48.858;9.206;2023-12-14T03:59:49;97406.38;;;6.09;100.00
11314;BME280;5712;48.858;9.206;2023-12-14T04:02:15;97406.28;;;6.10;100.00
11314;BME280;5712;48.858;9.206;2023-12-14T04:04:42;97403.66;;;6.10;100.00
11314;BME280;5712;48.858;9.206;2023-12-14T04:07:10;97410.56;;;6.11;100.00
11314;BME280;5712;48.858;9.206;2023-12-14T04:09:36;97419.38;;;6.10;100.00
11314;BME280;5712;48.858;9.206;2023-12-14T04:12:03;97418.34;;;6.13;100.00
11314;BME280;5712;48.858;9.206;2023-12-14T04:14:30;97424.56;;;6.12;100.00
11314;BME280;5712;48.858;9.206;2023-12-14T04:16:56;97438.69;;;6.09;100.00
11314;BME280;5712;48.858;9.206;2023-12-14T04:19:23;97437.00;;;6.08;100.00
11314;BME280;5712;48.858;9.206;2023-12-14T04:21:49;97440.38;;;6.10;100.00
11314;BME280;5712;48.858;9.206;2023-12-14T04:24:17;97447.50;;;6.08;100.00
11314;BME280;5712;48.858;9.206;2023-12-14T04:26:44;97443.75;;;6.12;100.00
11314;BME280;5712;48.858;9.206;2023-12-14T04:29:10;97448.97;;;6.12;100.00
11314;BME280;5712;48.858;9.206;2023-12-14T04:31:36;97456.97;;;6.11;100.00
11314;BME280;5712;48.858;9.206;2023-12-14T04:34:03;97460.41;;;6.11;100.00
11314;BME280;5712;48.858;9.206;2023-12-14T04:36:29;97458.75;;;6.10;100.00
11314;BME280;5712;48.858;9.206;2023-12-14T04:38:56;97459.31;;;6.15;100.00
11314;BME280;5712;48.858;9.206;2023-12-14T04:41:24;97464.63;;;6.14;100.00
11314;BME280;5712;48.858;9.206;2023-12-14T04:43:50;97477.75;;;6.14;100.00
11314;BME280;5712;48.858;9.206;2023-12-14T04:46:17;97474.09;;;6.16;100.00
11314;BME280;5712;48.858;9.206;2023-12-14T04:48:43;97472.34;;;6.17;100.00
11314;BME280;5712;48.858;9.206;2023-12-14T04:51:11;97476.72;;;6.16;100.00
11314;BME280;5712;48.858;9.206;2023-12-14T04:53:38;97478.59;;;6.14;100.00
11314;BME280;5712;48.858;9.206;2023-12-14T04:56:05;97475.97;;;6.14;100.00
11314;BME280;5712;48.858;9.206;2023-12-14T04:58:37;97482.91;;;6.15;100.00
11314;BME280;5712;48.858;9.206;2023-12-14T05:01:03;97484.31;;;6.21;100.00
11314;BME280;5712;48.858;9.206;2023-12-14T05:03:30;97490.41;;;6.21;100.00
11314;BME280;5712;48.858;9.206;2023-12-14T05:05:56;97496.38;;;6.23;100.00
11314;BME280;5712;48.858;9.206;2023-12-14T05:08:23;97499.88;;;6.24;100.00
11314;BME280;5712;48.858;9.206;2023-12-14T05:10:49;97505.94;;;6.24;100.00
11314;BME280;5712;48.858;9.206;2023-12-14T05:13:16;97505.03;;;6.25;100.00
11314;BME280;5712;48.858;9.206;2023-12-14T05:15:44;97513.00;;;6.24;100.00
11314;BME280;5712;48.858;9.206;2023-12-14T05:18:10;97518.16;;;6.25;100.00
11314;BME280;5712;48.858;9.206;2023-12-14T05:20:37;97514.38;;;6.29;100.00
11314;BME280;5712;48.858;9.206;2023-12-14T05:23:03;97522.16;;;6.31;100.00
11314;BME280;5712;48.858;9.206;2023-12-14T05:25:30;97526.16;;;6.36;100.00
11314;BME280;5712;48.858;9.206;2023-12-14T05:27:56;97531.25;;;6.39;100.00
11314;BME280;5712;48.858;9.206;2023-12-14T05:30:22;97543.44;;;6.40;100.00
11314;BME280;5712;48.858;9.206;2023-12-14T05:32:50;97538.00;;;6.43;100.00
11314;BME280;5712;48.858;9.206;2023-12-14T05:35:17;97546.06;;;6.40;100.00
11314;BME280;5712;48.858;9.206;2023-12-14T05:37:43;97552.25;;;6.39;100.00
11314;BME280;5712;48.858;9.206;2023-12-14T05:40:10;97560.13;;;6.39;100.00
11314;BME280;5712;48.858;9.206;2023-12-14T05:42:37;97566.47;;;6.35;100.00
11314;BME280;5712;48.858;9.206;2023-12-14T05:45:04;97576.53;;;6.43;100.00
11314;BME280;5712;48.858;9.206;2023-12-14T05:47:31;97579.16;;;6.43;100.00
11314;BME280;5712;48.858;9.206;2023-12-14T05:50:01;97584.59;;;6.40;100.00
11314;BME280;5712;48.858;9.206;2023-12-14T05:52:27;97585.41;;;6.40;100.00
11314;BME280;5712;48.858;9.206;2023-12-14T05:54:54;97583.75;;;6.39;100.00
11314;BME280;5712;48.858;9.206;2023-12-14T05:57:21;97587.22;;;6.40;100.00
11314;BME280;5712;48.858;9.206;2023-12-14T05:59:50;97587.09;;;6.41;100.00
11314;BME280;5712;48.858;9.206;2023-12-14T06:02:16;97591.03;;;6.34;100.00
11314;BME280;5712;48.858;9.206;2023-12-14T06:04:43;97585.63;;;6.37;100.00
11314;BME280;5712;48.858;9.206;2023-12-14T06:07:18;97591.78;;;6.36;100.00
11314;BME280;5712;48.858;9.206;2023-12-14T06:09:44;97605.38;;;6.43;100.00
11314;BME280;5712;48.858;9.206;2023-12-14T06:12:11;97605.47;;;6.41;100.00
11314;BME280;5712;48.858;9.206;2023-12-14T06:14:38;97607.28;;;6.41;100.00
11314;BME280;5712;48.858;9.206;2023-12-14T06:17:05;97612.59;;;6.39;100.00
11314;BME280;5712;48.858;9.206;2023-12-14T06:19:31;97618.50;;;6.43;100.00
11314;BME280;5712;48.858;9.206;2023-12-14T06:21:58;97613.06;;;6.46;100.00
11314;BME280;5712;48.858;9.206;2023-12-14T06:24:26;97621.78;;;6.46;100.00
11314;BME280;5712;48.858;9.206;2023-12-14T06:26:52;97621.22;;;6.41;100.00
11314;BME280;5712;48.858;9.206;2023-12-14T06:29:19;97631.72;;;6.41;100.00
11314;BME280;5712;48.858;9.206;2023-12-14T06:31:45;97635.38;;;6.39;100.00
11314;BME280;5712;48.858;9.206;2023-12-14T06:34:12;97639.78;;;6.38;100.00
11314;BME280;5712;48.858;9.206;2023-12-14T06:36:42;97649.94;;;6.44;100.00
11314;BME280;5712;48.858;9.206;2023-12-14T06:39:08;97648.25;;;6.43;100.00
11314;BME280;5712;48.858;9.206;2023-12-14T06:41:37;97662.09;;;6.45;100.00
11314;BME280;5712;48.858;9.206;2023-12-14T06:44:04;97663.78;;;6.46;100.00
11314;BME280;5712;48.858;9.206;2023-12-14T06:46:30;97668.66;;;6.52;100.00
11314;BME280;5712;48.858;9.206;2023-12-14T06:48:57;97669.31;;;6.56;100.00
11314;BME280;5712;48.858;9.206;2023-12-14T06:51:23;97671.00;;;6.57;100.00
11314;BME280;5712;48.858;9.206;2023-12-14T06:53:50;97674.88;;;6.51;100.00
11314;BME280;5712;48.858;9.206;2023-12-14T06:56:17;97682.38;;;6.57;100.00
11314;BME280;5712;48.858;9.206;2023-12-14T06:58:45;97686.69;;;6.58;100.00
11314;BME280;5712;48.858;9.206;2023-12-14T07:01:15;97686.50;;;6.61;100.00
11314;BME280;5712;48.858;9.206;2023-12-14T07:03:41;97701.41;;;6.61;100.00
11314;BME280;5712;48.858;9.206;2023-12-14T07:06:12;97709.38;;;6.59;100.00
11314;BME280;5712;48.858;9.206;2023-12-14T07:08:38;97716.88;;;6.65;100.00
11314;BME280;5712;48.858;9.206;2023-12-14T07:11:05;97717.53;;;6.69;100.00
11314;BME280;5712;48.858;9.206;2023-12-14T07:13:32;97721.59;;;6.74;100.00
11314;BME280;5712;48.858;9.206;2023-12-14T07:16:00;97730.38;;;6.73;100.00
11314;BME280;5712;48.858;9.206;2023-12-14T07:18:26;97735.47;;;6.76;100.00
11314;BME280;5712;48.858;9.206;2023-12-14T07:20:52;97748.50;;;6.78;100.00
11314;BME280;5712;48.858;9.206;2023-12-14T07:23:19;97751.97;;;6.78;100.00
11314;BME280;5712;48.858;9.206;2023-12-14T07:25:45;97756.38;;;6.78;100.00
11314;BME280;5712;48.858;9.206;2023-12-14T07:28:12;97752.91;;;6.77;100.00
11314;BME280;5712;48.858;9.206;2023-12-14T07:30:38;97762.31;;;6.81;100.00
11314;BME280;5712;48.858;9.206;2023-12-14T07:33:06;97765.09;;;6.78;100.00
11314;BME280;5712;48.858;9.206;2023-12-14T07:35:33;97768.66;;;6.77;100.00
11314;BME280;5712;48.858;9.206;2023-12-14T07:37:59;97767.63;;;6.80;100.00
11314;BME280;5712;48.858;9.206;2023-12-14T07:40:25;97773.91;;;6.77;100.00
11314;BME280;5712;48.858;9.206;2023-12-14T07:42:54;97771.88;;;6.82;100.00
11314;BME280;5712;48.858;9.206;2023-12-14T07:45:21;97782.38;;;6.82;100.00
11314;BME280;5712;48.858;9.206;2023-12-14T07:47:47;97788.47;;;6.83;100.00
11314;BME280;5712;48.858;9.206;2023-12-14T07:50:15;97789.16;;;6.86;100.00
11314;BME280;5712;48.858;9.206;2023-12-14T07:52:41;97798.34;;;6.93;100.00
11314;BME280;5712;48.858;9.206;2023-12-14T07:55:08;97802.66;;;6.94;100.00
11314;BME280;5712;48.858;9.206;2023-12-14T07:57:35;97806.97;;;6.95;100.00
11314;BME280;5712;48.858;9.206;2023-12-14T08:00:01;97803.97;;;7.01;100.00
11314;BME280;5712;48.858;9.206;2023-12-14T08:02:29;97814.47;;;7.01;100.00
11314;BME280;5712;48.858;9.206;2023-12-14T08:04:55;97809.06;;;7.04;100.00
11314;BME280;5712;48.858;9.206;2023-12-14T08:07:23;97816.81;;;7.06;100.00
11314;BME280;5712;48.858;9.206;2023-12-14T08:09:54;97817.41;;;7.11;100.00
11314;BME280;5712;48.858;9.206;2023-12-14T08:12:20;97822.72;;;7.09;100.00
11314;BME280;5712;48.858;9.206;2023-12-14T08:14:47;97825.47;;;7.22;100.00
11314;BME280;5712;48.858;9.206;2023-12-14T08:17:14;97828.97;;;7.22;100.00
11314;BME280;5712;48.858;9.206;2023-12-14T08:19:40;97839.28;;;7.25;100.00
11314;BME280;5712;48.858;9.206;2023-12-14T08:22:07;97844.53;;;7.25;100.00
11314;BME280;5712;48.858;9.206;2023-12-14T08:24:39;97850.00;;;7.22;100.00
11314;BME280;5712;48.858;9.206;2023-12-14T08:27:05;97860.50;;;7.22;100.00
11314;BME280;5712;48.858;9.206;2023-12-14T08:29:32;97853.53;;;7.21;100.00
11314;BME280;5712;48.858;9.206;2023-12-14T08:31:58;97867.44;;;7.23;100.00
11314;BME280;5712;48.858;9.206;2023-12-14T08:34:26;97871.09;;;7.21;100.00
11314;BME280;5712;48.858;9.206;2023-12-14T08:36:53;97868.56;;;7.19;100.00
11314;BME280;5712;48.858;9.206;2023-12-14T08:39:20;97875.22;;;7.24;100.00
11314;BME280;5712;48.858;9.206;2023-12-14T08:41:48;97885.19;;;7.33;100.00
11314;BME280;5712;48.858;9.206;2023-12-14T08:44:14;97883.03;;;7.40;100.00
11314;BME280;5712;48.858;9.206;2023-12-14T08:46:42;97897.31;;;7.50;100.00
11314;BME280;5712;48.858;9.206;2023-12-14T08:49:08;97898.47;;;7.60;100.00
11314;BME280;5712;48.858;9.206;2023-12-14T08:51:35;97896.84;;;7.71;100.00
11314;BME280;5712;48.858;9.206;2023-12-14T08:54:01;97911.22;;;7.80;100.00
11314;BME280;5712;48.858;9.206;2023-12-14T08:56:28;97916.97;;;7.86;100.00
11314;BME280;5712;48.858;9.206;2023-12-14T08:58:56;97922.41;;;7.83;100.00
11314;BME280;5712;48.858;9.206;2023-12-14T09:01:23;97933.59;;;7.87;100.00
11314;BME280;5712;48.858;9.206;2023-12-14T09:03:49;97944.88;;;7.89;100.00
11314;BME280;5712;48.858;9.206;2023-12-14T09:06:17;97936.22;;;7.87;100.00
11314;BME280;5712;48.858;9.206;2023-12-14T09:08:43;97936.22;;;7.87;100.00
11314;BME280;5712;48.858;9.206;2023-12-14T09:11:10;97941.41;;;7.88;100.00
11314;BME280;5712;48.858;9.206;2023-12-14T09:13:36;97957.84;;;7.92;100.00
11314;BME280;5712;48.858;9.206;2023-12-14T09:16:05;97952.19;;;7.98;100.00
11314;BME280;5712;48.858;9.206;2023-12-14T09:18:32;97965.72;;;8.06;100.00
11314;BME280;5712;48.858;9.206;2023-12-14T09:20:58;97967.78;;;8.01;100.00
11314;BME280;5712;48.858;9.206;2023-12-14T09:23:25;97974.75;;;8.02;100.00
11314;BME280;5712;48.858;9.206;2023-12-14T09:25:51;97979.25;;;8.00;100.00
11314;BME280;5712;48.858;9.206;2023-12-14T09:28:18;97981.88;;;8.00;100.00
11314;BME280;5712;48.858;9.206;2023-12-14T09:30:45;97987.16;;;8.00;100.00
11314;BME280;5712;48.858;9.206;2023-12-14T09:33:12;98002.00;;;8.01;100.00
11314;BME280;5712;48.858;9.206;2023-12-14T09:35:39;98004.81;;;7.98;100.00
11314;BME280;5712;48.858;9.206;2023-12-14T09:38:06;98004.81;;;7.98;100.00
11314;BME280;5712;48.858;9.206;2023-12-14T09:40:33;98003.06;;;7.98;100.00
11314;BME280;5712;48.858;9.206;2023-12-14T09:43:00;98001.09;;;8.02;100.00
11314;BME280;5712;48.858;9.206;2023-12-14T09:45:29;98002.00;;;8.15;100.00
11314;BME280;5712;48.858;9.206;2023-12-14T09:47:56;97998.09;;;8.22;100.00
11314;BME280;5712;48.858;9.206;2023-12-14T09:50:24;98007.13;;;8.32;100.00
11314;BME280;5712;48.858;9.206;2023-12-14T09:52:51;98010.84;;;8.42;100.00
11314;BME280;5712;48.858;9.206;2023-12-14T09:55:17;98010.69;;;8.45;100.00
11314;BME280;5712;48.858;9.206;2023-12-14T09:57:44;98007.75;;;8.49;100.00
11314;BME280;5712;48.858;9.206;2023-12-14T10:00:12;98007.84;;;8.48;100.00
11314;BME280;5712;48.858;9.206;2023-12-14T10:02:40;98021.66;;;8.51;100.00
11314;BME280;5712;48.858;9.206;2023-12-14T10:05:09;98022.69;;;8.49;100.00
11314;BME280;5712;48.858;9.206;2023-12-14T10:07:41;98028.63;;;8.52;100.00
11314;BME280;5712;48.858;9.206;2023-12-14T10:10:12;98037.00;;;8.59;100.00
11314;BME280;5712;48.858;9.206;2023-12-14T10:12:50;98040.50;;;8.59;100.00
11314;BME280;5712;48.858;9.206;2023-12-14T10:15:18;98048.91;;;8.64;100.00
11314;BME280;5712;48.858;9.206;2023-12-14T10:17:44;98051.47;;;8.66;100.00
11314;BME280;5712;48.858;9.206;2023-12-14T10:20:19;98052.06;;;8.57;100.00
11314;BME280;5712;48.858;9.206;2023-12-14T10:22:48;98057.97;;;8.60;100.00
11314;BME280;5712;48.858;9.206;2023-12-14T10:25:15;98061.66;;;8.58;100.00
11314;BME280;5712;48.858;9.206;2023-12-14T10:27:46;98061.09;;;8.53;100.00
11314;BME280;5712;48.858;9.206;2023-12-14T10:30:13;98068.03;;;8.54;100.00
11314;BME280;5712;48.858;9.206;2023-12-14T10:32:40;98072.19;;;8.44;100.00
11314;BME280;5712;48.858;9.206;2023-12-14T10:35:07;98072.19;;;8.44;100.00
11314;BME280;5712;48.858;9.206;2023-12-14T10:37:37;98063.34;;;8.45;100.00
11314;BME280;5712;48.858;9.206;2023-12-14T10:40:07;98064.84;;;8.49;100.00
11314;BME280;5712;48.858;9.206;2023-12-14T10:42:36;98074.25;;;8.53;100.00
11314;BME280;5712;48.858;9.206;2023-12-14T10:45:03;98079.22;;;8.57;100.00
11314;BME280;5712;48.858;9.206;2023-12-14T10:47:30;98085.00;;;8.50;100.00
11314;BME280;5712;48.858;9.206;2023-12-14T10:49:59;98081.88;;;8.57;100.00
11314;BME280;5712;48.858;9.206;2023-12-14T10:52:27;98088.00;;;8.58;100.00
11314;BME280;5712;48.858;9.206;2023-12-14T10:54:59;98085.00;;;8.50;100.00
11314;BME280;5712;48.858;9.206;2023-12-14T10:57:28;98088.38;;;8.52;100.00
11314;BME280;5712;48.858;9.206;2023-12-14T10:59:57;98095.25;;;8.54;100.00
11314;BME280;5712;48.858;9.206;2023-12-14T11:02:25;98090.53;;;8.59;100.00
11314;BME280;5712;48.858;9.206;2023-12-14T11:04:55;98104.91;;;8.54;100.00
11314;BME280;5712;48.858;9.206;2023-12-14T11:07:42;98096.06;;;8.55;100.00
11314;BME280;5712;48.858;9.206;2023-12-14T11:10:09;98095.53;;;8.50;100.00
11314;BME280;5712;48.858;9.206;2023-12-14T11:12:38;98099.47;;;8.57;100.00
11314;BME280;5712;48.858;9.206;2023-12-14T11:15:17;98106.44;;;8.58;100.00
11314;BME280;5712;48.858;9.206;2023-12-14T11:17:43;98103.06;;;8.56;100.00
11314;BME280;5712;48.858;9.206;2023-12-14T11:20:30;98091.19;;;8.49;100.00
11314;BME280;5712;48.858;9.206;2023-12-14T11:23:07;98103.06;;;8.56;100.00
11314;BME280;5712;48.858;9.206;2023-12-14T11:25:35;98106.44;;;8.58;100.00
11314;BME280;5712;48.858;9.206;2023-12-14T11:28:04;98111.22;;;8.65;100.00
11314;BME280;5712;48.858;9.206;2023-12-14T11:30:33;98102.25;;;8.68;100.00
11314;BME280;5712;48.858;9.206;2023-12-14T11:32:59;98119.69;;;8.70;100.00
11314;BME280;5712;48.858;9.206;2023-12-14T11:35:26;98121.84;;;8.64;100.00
11314;BME280;5712;48.858;9.206;2023-12-14T11:37:52;98123.47;;;8.66;100.00
11314;BME280;5712;48.858;9.206;2023-12-14T11:40:21;98128.53;;;8.55;100.00
11314;BME280;5712;48.858;9.206;2023-12-14T11:42:57;98132.94;;;8.55;100.00
11314;BME280;5712;48.858;9.206;2023-12-14T11:45:33;98142.44;;;8.57;100.00
11314;BME280;5712;48.858;9.206;2023-12-14T11:48:01;98137.84;;;8.61;100.00
11314;BME280;5712;48.858;9.206;2023-12-14T11:50:31;98142.72;;;8.67;100.00
11314;BME280;5712;48.858;9.206;2023-12-14T11:52:58;98146.31;;;8.66;100.00
11314;BME280;5712;48.858;9.206;2023-12-14T11:55:24;98141.03;;;8.66;100.00
11314;BME280;5712;48.858;9.206;2023-12-14T11:57:51;98144.25;;;8.71;100.00
11314;BME280;5712;48.858;9.206;2023-12-14T12:00:18;98144.25;;;8.71;100.00
11314;BME280;5712;48.858;9.206;2023-12-14T12:02:50;98147.91;;;8.68;100.00
11314;BME280;5712;48.858;9.206;2023-12-14T12:05:18;98148.19;;;8.64;100.00
11314;BME280;5712;48.858;9.206;2023-12-14T12:07:44;98148.19;;;8.64;100.00
11314;BME280;5712;48.858;9.206;2023-12-14T12:10:11;98146.69;;;8.60;100.00
11314;BME280;5712;48.858;9.206;2023-12-14T12:12:37;98148.00;;;8.53;100.00
11314;BME280;5712;48.858;9.206;2023-12-14T12:15:05;98154.59;;;8.46;100.00
11314;BME280;5712;48.858;9.206;2023-12-14T12:17:31;98157.59;;;8.54;100.00
11314;BME280;5712;48.858;9.206;2023-12-14T12:20:04;98157.44;;;8.57;100.00
11314;BME280;5712;48.858;9.206;2023-12-14T12:22:31;98159.78;;;8.61;100.00
11314;BME280;5712;48.858;9.206;2023-12-14T12:24:57;98166.19;;;8.71;100.00
11314;BME280;5712;48.858;9.206;2023-12-14T12:27:25;98157.78;;;8.79;100.00
11314;BME280;5712;48.858;9.206;2023-12-14T12:29:52;98163.44;;;8.73;100.00
11314;BME280;5712;48.858;9.206;2023-12-14T12:32:19;98167.38;;;8.66;100.00
11314;BME280;5712;48.858;9.206;2023-12-14T12:34:46;98180.72;;;8.49;100.00
11314;BME280;5712;48.858;9.206;2023-12-14T12:37:14;98179.19;;;8.31;100.00
11314;BME280;5712;48.858;9.206;2023-12-14T12:39:40;98173.88;;;8.17;100.00
11314;BME280;5712;48.858;9.206;2023-12-14T12:42:07;98175.34;;;8.07;100.00
11314;BME280;5712;48.858;9.206;2023-12-14T12:44:33;98175.03;;;7.97;100.00
11314;BME280;5712;48.858;9.206;2023-12-14T12:47:00;98175.59;;;8.02;100.00
11314;BME280;5712;48.858;9.206;2023-12-14T12:49:26;98178.31;;;8.01;100.00
11314;BME280;5712;48.858;9.206;2023-12-14T12:51:53;98183.16;;;8.08;100.00
11314;BME280;5712;48.858;9.206;2023-12-14T12:54:20;98185.78;;;8.08;100.00
11314;BME280;5712;48.858;9.206;2023-12-14T12:56:47;98182.22;;;8.09;100.00
11314;BME280;5712;48.858;9.206;2023-12-14T12:59:13;98183.59;;;8.01;100.00
11314;BME280;5712;48.858;9.206;2023-12-14T13:01:40;98188.84;;;8.01;100.00
11314;BME280;5712;48.858;9.206;2023-12-14T13:04:17;98186.59;;;7.95;100.00
11314;BME280;5712;48.858;9.206;2023-12-14T13:06:44;98194.66;;;7.92;100.00
11314;BME280;5712;48.858;9.206;2023-12-14T13:09:11;98194.50;;;7.95;100.00
11314;BME280;5712;48.858;9.206;2023-12-14T13:11:39;98196.53;;;7.90;100.00